Time;durP1;ratioP1;P1;durP2;ratioP2;P2;SDS_P1;SDS_P2;PMS_P1;PMS_P2;Temp;Humidity;BMP_temperature;BMP_pressure;BME280_temperature;BME280_humidity;BME280_pressure;Samples;Min_cycle;Max_cycle;Signal;HPM_P1;HPM_P2
2021/09/21 00:02:22;;;;;;;1.90;1.45;;;19.40;48.30;;;;;;5056114;28;20259;-56
2021/09/21 00:04:54;;;;;;;2.72;1.60;;;19.40;48.20;;;;;;5050289;28;20238;-50
2021/09/21 00:07:24;;;;;;;3.58;1.65;;;19.40;48.20;;;;;;5049719;28;20195;-58
2021/09/21 00:09:55;;;;;;;3.78;1.50;;;19.40;48.20;;;;;;5059285;28;20498;-56
2021/09/21 00:12:27;;;;;;;3.22;1.80;;;19.50;48.10;;;;;;5070017;28;20897;-58
2021/09/21 00:14:57;;;;;;;3.25;1.55;;;19.50;48.10;;;;;;5070386;28;20230;-55
2021/09/21 00:17:28;;;;;;;2.63;1.42;;;19.50;48.00;;;;;;5069673;28;20774;-59
2021/09/21 00:19:58;;;;;;;3.58;1.67;;;19.50;47.90;;;;;;5069030;28;20226;-57
2021/09/21 00:22:29;;;;;;;4.50;1.30;;;19.60;47.90;;;;;;5062345;28;20309;-58
2021/09/21 00:24:59;;;;;;;4.00;1.48;;;19.60;48.00;;;;;;5064629;28;20257;-57
2021/09/21 00:27:31;;;;;;;3.13;1.13;;;19.60;48.00;;;;;;5070531;28;20195;-53
2021/09/21 00:30:03;;;;;;;2.35;1.10;;;19.60;47.90;;;;;;5085705;28;20280;-56
2021/09/21 00:32:33;;;;;;;3.42;1.30;;;19.60;47.90;;;;;;5060290;28;20235;-56
2021/09/21 00:35:04;;;;;;;2.42;1.40;;;19.70;47.90;;;;;;5057823;28;20303;-58
2021/09/21 00:37:34;;;;;;;2.65;1.30;;;19.70;47.80;;;;;;5073936;28;20219;-56
2021/09/21 00:40:05;;;;;;;1.58;1.17;;;19.70;47.70;;;;;;5074176;28;20281;-54
2021/09/21 00:42:37;;;;;;;1.67;1.00;;;19.70;47.60;;;;;;5058951;28;20337;-55
2021/09/21 00:45:08;;;;;;;1.65;1.10;;;19.80;47.70;;;;;;5053082;28;20254;-58
2021/09/21 00:47:39;;;;;;;3.40;1.20;;;19.80;47.70;;;;;;5052948;28;20649;-57
2021/09/21 00:50:10;;;;;;;2.95;1.48;;;19.80;47.60;;;;;;5053993;28;20238;-55
2021/09/21 00:52:40;;;;;;;1.45;0.90;;;19.80;47.60;;;;;;5068986;28;20234;-52
2021/09/21 00:55:11;;;;;;;2.47;1.15;;;19.90;47.60;;;;;;5072552;28;20231;-48
2021/09/21 00:57:43;;;;;;;3.35;1.10;;;19.90;47.50;;;;;;5072356;28;20323;-52
2021/09/21 01:00:15;;;;;;;2.00;1.25;;;19.90;47.40;;;;;;5072878;28;20218;-50
2021/09/21 01:02:46;;;;;;;1.38;0.90;;;19.90;47.40;;;;;;5055361;28;20310;-47
2021/09/21 01:05:16;;;;;;;2.17;0.90;;;20.00;47.40;;;;;;5053008;28;20321;-53
2021/09/21 01:07:47;;;;;;;3.30;0.90;;;20.00;47.30;;;;;;5052714;28;20566;-54
2021/09/21 01:10:25;;;;;;;1.77;0.80;;;20.00;47.30;;;;;;5052694;28;20265;-52
2021/09/21 01:12:57;;;;;;;1.73;0.90;;;20.10;47.30;;;;;;5070396;28;20653;-54
2021/09/21 01:15:27;;;;;;;4.10;0.90;;;20.10;47.20;;;;;;5071871;28;20230;-48
2021/09/21 01:17:58;;;;;;;1.65;0.75;;;20.10;47.10;;;;;;5072941;28;20254;-52
2021/09/21 01:20:28;;;;;;;1.88;0.80;;;20.10;47.10;;;;;;5072881;28;20201;-52
2021/09/21 01:23:04;;;;;;;1.65;0.80;;;20.20;47.10;;;;;;5055718;28;20231;-58
2021/09/21 01:25:34;;;;;;;1.02;0.75;;;20.20;47.00;;;;;;5062715;28;20308;-58
2021/09/21 01:28:05;;;;;;;1.58;1.08;;;20.20;47.10;;;;;;5072637;28;20253;-58
2021/09/21 01:30:35;;;;;;;1.10;0.80;;;20.20;47.10;;;;;;5073602;28;20198;-59
2021/09/21 01:33:05;;;;;;;1.00;0.70;;;20.20;47.00;;;;;;5073598;28;20268;-58
2021/09/21 01:35:36;;;;;;;0.95;0.80;;;20.30;47.00;;;;;;5072865;28;20234;-50
2021/09/21 01:38:08;;;;;;;1.30;0.80;;;20.30;47.00;;;;;;5063170;28;20706;-47
2021/09/21 01:40:39;;;;;;;0.70;0.55;;;20.30;46.90;;;;;;5092881;28;20198;-48
2021/09/21 01:43:09;;;;;;;1.65;0.60;;;20.40;47.00;;;;;;5093370;28;20264;-51
2021/09/21 01:45:40;;;;;;;1.25;0.60;;;20.40;47.00;;;;;;5081780;28;20230;-46
2021/09/21 01:48:10;;;;;;;0.50;0.50;;;20.40;46.90;;;;;;5073182;28;20645;-58
2021/09/21 01:50:46;;;;;;;0.50;0.50;;;20.50;46.90;;;;;;5072583;28;20226;-57
2021/09/21 01:53:24;;;;;;;0.93;0.70;;;20.50;46.80;;;;;;5071988;28;20194;-56
2021/09/21 01:58:50;;;;;;;1.17;0.60;;;20.50;46.90;;;;;;5071749;28;20749;-52
2021/09/21 02:01:21;;;;;;;2.03;0.70;;;20.60;47.00;;;;;;5072721;28;20226;-58
2021/09/21 02:03:52;;;;;;;1.10;0.55;;;20.60;47.10;;;;;;5072031;28;20261;-53
2021/09/21 02:06:27;;;;;;;1.13;0.80;;;20.60;47.10;;;;;;5071626;28;20240;-48
2021/09/21 02:09:00;;;;;;;0.77;0.70;;;20.70;47.10;;;;;;5071859;28;20686;-51
2021/09/21 02:11:30;;;;;;;1.42;0.75;;;20.70;47.00;;;;;;5073072;28;20202;-57
2021/09/21 02:14:01;;;;;;;0.75;0.50;;;20.70;46.90;;;;;;5071321;28;20253;-55
2021/09/21 02:16:31;;;;;;;0.98;0.63;;;20.80;46.90;;;;;;5064298;28;20203;-48
2021/09/21 02:19:02;;;;;;;1.17;0.63;;;20.80;46.90;;;;;;5072187;28;20253;-47
2021/09/21 02:21:32;;;;;;;1.23;0.47;;;20.80;46.80;;;;;;5072254;28;20280;-51
2021/09/21 02:24:05;;;;;;;1.35;0.52;;;20.90;46.70;;;;;;5072646;28;20258;-57
2021/09/21 02:26:35;;;;;;;1.25;0.70;;;20.90;46.80;;;;;;5072620;28;20230;-58
2021/09/21 02:29:06;;;;;;;0.40;0.40;;;20.90;46.80;;;;;;5072306;28;20247;-59
2021/09/21 02:31:36;;;;;;;0.50;0.38;;;21.00;46.80;;;;;;5072155;28;20230;-59
2021/09/21 02:34:07;;;;;;;1.13;0.47;;;21.00;46.70;;;;;;5071836;28;20231;-49
2021/09/21 02:36:40;;;;;;;1.05;0.60;;;21.00;46.60;;;;;;5072218;28;20646;-52
2021/09/21 02:39:13;;;;;;;0.50;0.50;;;21.10;46.70;;;;;;5072304;28;20214;-59
2021/09/21 02:41:43;;;;;;;2.05;0.40;;;21.10;46.70;;;;;;5072372;28;20195;-51
2021/09/21 02:44:14;;;;;;;0.88;0.50;;;21.20;46.80;;;;;;5072108;28;20309;-56
2021/09/21 02:46:44;;;;;;;0.80;0.50;;;21.20;46.80;;;;;;5071847;28;20226;-57
2021/09/21 02:49:14;;;;;;;0.43;0.40;;;21.20;46.80;;;;;;5071822;28;20253;-58
2021/09/21 02:51:45;;;;;;;0.65;0.50;;;21.20;46.70;;;;;;5072102;28;20299;-50
2021/09/21 02:54:17;;;;;;;0.80;0.32;;;21.30;46.50;;;;;;5071928;28;20238;-57
2021/09/21 02:56:48;;;;;;;0.57;0.50;;;21.30;46.30;;;;;;5050651;28;20270;-57
2021/09/21 02:59:18;;;;;;;0.47;0.40;;;21.30;46.30;;;;;;5051717;28;20273;-58
2021/09/21 03:01:48;;;;;;;0.63;0.40;;;21.30;46.20;;;;;;5051494;28;20614;-57
2021/09/21 03:04:23;;;;;;;2.63;0.40;;;21.40;46.20;;;;;;5051677;28;20653;-57
2021/09/21 03:07:01;;;;;;;1.38;0.30;;;21.40;46.20;;;;;;5051332;28;20591;-59
2021/09/21 03:09:50;;;;;;;0.80;0.45;;;21.40;46.20;;;;;;5051172;28;20723;-52
2021/09/21 03:12:29;;;;;;;0.40;0.40;;;21.50;46.20;;;;;;5051806;28;20200;-59
2021/09/21 03:17:46;;;;;;;0.30;0.30;;;21.50;46.00;;;;;;5051617;28;20214;-57
2021/09/21 03:20:17;;;;;;;0.60;0.40;;;21.60;46.00;;;;;;5051675;28;20199;-54
2021/09/21 03:22:47;;;;;;;0.30;0.30;;;21.50;46.00;;;;;;5051572;28;20341;-57
2021/09/21 03:25:19;;;;;;;0.63;0.63;;;21.60;46.00;;;;;;5059313;28;20243;-55
2021/09/21 03:27:50;;;;;;;0.30;0.30;;;21.50;46.00;;;;;;5070737;28;20218;-51
2021/09/21 03:30:20;;;;;;;0.40;0.40;;;21.50;46.00;;;;;;5070881;28;20230;-54
2021/09/21 03:32:51;;;;;;;0.40;0.40;;;21.60;46.00;;;;;;5071055;28;20229;-57
2021/09/21 03:35:21;;;;;;;0.35;0.35;;;21.60;46.00;;;;;;5070996;28;20229;-57
2021/09/21 03:37:52;;;;;;;0.40;0.40;;;21.60;46.00;;;;;;5071147;28;20214;-58
2021/09/21 03:40:24;;;;;;;0.40;0.40;;;21.60;46.00;;;;;;5071713;28;20252;-48
2021/09/21 03:42:55;;;;;;;0.60;0.40;;;21.60;46.00;;;;;;5067350;28;20253;-53
2021/09/21 03:45:26;;;;;;;0.40;0.40;;;21.60;46.00;;;;;;5077051;28;20228;-59
2021/09/21 03:47:56;;;;;;;0.30;0.30;;;21.60;45.90;;;;;;5090518;28;20214;-59
2021/09/21 03:50:27;;;;;;;0.30;0.30;;;21.60;45.80;;;;;;5090378;28;20231;-58
2021/09/21 03:52:57;;;;;;;1.02;0.47;;;21.70;45.80;;;;;;5072624;28;20237;-51
2021/09/21 03:55:30;;;;;;;0.57;0.40;;;21.70;45.80;;;;;;5070299;28;20230;-56
2021/09/21 03:58:00;;;;;;;0.40;0.30;;;21.70;45.80;;;;;;5070359;28;20254;-59
2021/09/21 04:00:34;;;;;;;0.68;0.35;;;21.70;45.80;;;;;;5070280;28;20736;-58
2021/09/21 04:03:04;;;;;;;0.40;0.40;;;21.70;45.60;;;;;;5050898;28;20288;-55
2021/09/21 04:05:35;;;;;;;0.50;0.40;;;21.80;45.60;;;;;;5049732;28;20231;-57
2021/09/21 04:08:05;;;;;;;0.47;0.43;;;21.80;45.50;;;;;;5052222;28;20259;-58
2021/09/21 04:10:41;;;;;;;0.30;0.30;;;21.70;45.50;;;;;;5055509;28;20238;-53
2021/09/21 04:13:11;;;;;;;1.17;0.50;;;21.70;45.50;;;;;;5072268;28;20674;-53
2021/09/21 04:15:42;;;;;;;0.52;0.30;;;21.80;45.60;;;;;;5075395;28;20194;-59
2021/09/21 04:18:12;;;;;;;0.50;0.30;;;21.80;45.60;;;;;;5072784;28;20215;-59
2021/09/21 04:20:43;;;;;;;0.47;0.40;;;21.80;45.60;;;;;;5074369;28;20282;-56
2021/09/21 04:23:13;;;;;;;0.40;0.40;;;21.80;45.70;;;;;;5053689;28;20331;-56
2021/09/21 04:25:45;;;;;;;0.35;0.35;;;21.80;45.80;;;;;;5066083;28;20260;-54
2021/09/21 04:28:16;;;;;;;1.50;0.30;;;21.80;45.90;;;;;;5073601;28;20268;-49
2021/09/21 04:30:47;;;;;;;1.05;0.22;;;21.80;45.90;;;;;;5073514;28;20206;-51
2021/09/21 04:33:17;;;;;;;0.32;0.32;;;21.80;45.60;;;;;;5073263;28;20227;-58
2021/09/21 04:35:47;;;;;;;0.80;0.38;;;21.80;45.60;;;;;;5073516;28;20651;-59
2021/09/21 04:38:18;;;;;;;0.47;0.35;;;21.80;45.50;;;;;;5080632;28;20301;-58
2021/09/21 04:40:50;;;;;;;0.75;0.40;;;21.80;45.70;;;;;;5088037;28;20297;-50
2021/09/21 04:43:20;;;;;;;0.32;0.30;;;21.90;46.00;;;;;;5073038;28;20314;-54
2021/09/21 04:45:51;;;;;;;0.60;0.30;;;21.80;46.00;;;;;;5072669;28;20633;-53
2021/09/21 04:48:21;;;;;;;1.65;0.57;;;21.80;45.90;;;;;;5074320;28;20647;-58
2021/09/21 04:50:52;;;;;;;0.30;0.30;;;21.90;45.90;;;;;;5072945;28;20285;-58
2021/09/21 04:53:22;;;;;;;0.30;0.30;;;21.90;45.90;;;;;;5073882;28;20237;-58
2021/09/21 04:55:54;;;;;;;1.45;0.60;;;21.90;45.80;;;;;;5073583;28;20234;-56
2021/09/21 04:58:25;;;;;;;1.33;0.55;;;21.90;45.70;;;;;;5088458;28;20309;-59
2021/09/21 05:00:56;;;;;;;1.15;0.45;;;21.80;45.40;;;;;;5091078;28;20255;-59
2021/09/21 05:03:26;;;;;;;2.33;0.52;;;21.80;45.30;;;;;;5069689;28;20241;-57
2021/09/21 05:05:57;;;;;;;1.35;0.40;;;21.90;45.30;;;;;;5073310;28;20632;-58
2021/09/21 05:08:27;;;;;;;0.63;0.50;;;21.80;45.30;;;;;;5072910;28;20313;-47
2021/09/21 05:10:59;;;;;;;0.77;0.50;;;21.80;45.10;;;;;;5073792;28;20267;-54
2021/09/21 05:13:30;;;;;;;1.13;0.50;;;21.80;45.10;;;;;;5072180;28;20226;-60
2021/09/21 05:16:00;;;;;;;0.80;0.43;;;21.80;45.20;;;;;;5072945;28;20230;-57
2021/09/21 05:18:31;;;;;;;1.48;0.38;;;21.80;45.00;;;;;;5072034;28;20280;-58
2021/09/21 05:21:01;;;;;;;0.65;0.35;;;21.80;45.00;;;;;;5071304;28;20763;-56
2021/09/21 05:23:31;;;;;;;1.70;0.43;;;21.80;44.90;;;;;;5073085;28;20270;-57
2021/09/21 05:26:04;;;;;;;0.88;0.40;;;21.80;44.90;;;;;;5070556;28;20280;-56
2021/09/21 05:28:35;;;;;;;0.60;0.30;;;21.80;45.10;;;;;;5072348;28;20290;-58
2021/09/21 05:31:05;;;;;;;1.38;0.52;;;21.80;45.00;;;;;;5070329;28;20255;-56
2021/09/21 05:33:36;;;;;;;0.63;0.40;;;21.80;45.10;;;;;;5072744;28;20199;-57
2021/09/21 05:36:06;;;;;;;1.77;0.40;;;21.80;45.10;;;;;;5072182;28;20284;-56
2021/09/21 05:38:37;;;;;;;0.60;0.30;;;21.70;44.90;;;;;;5072979;28;20297;-58
2021/09/21 05:41:09;;;;;;;0.50;0.40;;;21.70;45.10;;;;;;5067272;28;20552;-56
2021/09/21 05:43:40;;;;;;;0.40;0.30;;;21.80;45.00;;;;;;5052906;28;20258;-55
2021/09/21 05:46:10;;;;;;;0.40;0.40;;;21.70;44.90;;;;;;5052350;28;20223;-55
2021/09/21 05:48:41;;;;;;;0.50;0.40;;;21.70;45.10;;;;;;5052309;28;20290;-59
2021/09/21 05:51:11;;;;;;;1.58;0.50;;;21.70;45.30;;;;;;5055591;28;20625;-59
2021/09/21 05:53:42;;;;;;;0.63;0.30;;;21.70;45.40;;;;;;5071884;28;20229;-60
2021/09/21 05:56:14;;;;;;;1.33;0.65;;;21.70;45.40;;;;;;5072849;28;20207;-56
2021/09/21 05:58:44;;;;;;;0.30;0.30;;;21.70;45.50;;;;;;5071617;28;20309;-55
2021/09/21 06:01:15;;;;;;;0.70;0.63;;;21.70;45.30;;;;;;5068716;28;20282;-59
2021/09/21 06:03:45;;;;;;;0.65;0.50;;;21.70;45.20;;;;;;5052499;28;20226;-59
2021/09/21 06:06:16;;;;;;;1.02;0.50;;;21.70;45.20;;;;;;5058398;28;20223;-59
2021/09/21 06:08:46;;;;;;;1.75;0.55;;;21.60;45.30;;;;;;5069320;28;20295;-59
2021/09/21 06:11:20;;;;;;;0.40;0.35;;;21.60;45.30;;;;;;5073018;28;20628;-60
2021/09/21 06:13:50;;;;;;;1.48;0.60;;;21.60;45.50;;;;;;5071503;28;20199;-58
2021/09/21 06:16:21;;;;;;;0.82;0.60;;;21.60;46.10;;;;;;5072426;28;20226;-55
2021/09/21 06:18:51;;;;;;;1.95;0.55;;;21.60;46.30;;;;;;5071939;28;20250;-60
2021/09/21 06:21:22;;;;;;;0.98;0.52;;;21.60;46.20;;;;;;5072285;28;20663;-58
2021/09/21 06:23:52;;;;;;;1.30;0.50;;;21.60;46.30;;;;;;5072830;28;20222;-59
2021/09/21 06:26:25;;;;;;;2.38;0.52;;;21.60;46.20;;;;;;5073101;28;20207;-59
2021/09/21 06:28:55;;;;;;;0.50;0.40;;;21.60;46.20;;;;;;5072598;28;20250;-59
2021/09/21 06:31:26;;;;;;;0.40;0.40;;;21.60;46.20;;;;;;5072468;28;20237;-59
2021/09/21 06:33:56;;;;;;;1.42;0.60;;;21.60;46.20;;;;;;5072511;28;20628;-60
2021/09/21 06:36:26;;;;;;;1.85;0.60;;;21.60;46.10;;;;;;5072167;28;20229;-60
2021/09/21 06:38:57;;;;;;;1.38;0.70;;;21.60;46.10;;;;;;5072083;28;20222;-59
2021/09/21 06:41:29;;;;;;;1.58;0.60;;;21.60;46.10;;;;;;5071792;28;20596;-59
2021/09/21 06:44:00;;;;;;;1.15;0.40;;;21.60;46.10;;;;;;5071698;28;20253;-59
2021/09/21 06:46:30;;;;;;;0.75;0.50;;;21.50;46.10;;;;;;5072032;28;20252;-59
2021/09/21 06:49:01;;;;;;;0.47;0.40;;;21.50;46.10;;;;;;5071869;28;20245;-55
2021/09/21 06:51:31;;;;;;;1.00;0.50;;;21.50;46.20;;;;;;5071300;28;20285;-57
2021/09/21 06:54:02;;;;;;;1.15;0.50;;;21.50;46.20;;;;;;5071332;28;20198;-58
2021/09/21 06:56:34;;;;;;;0.60;0.50;;;21.50;46.20;;;;;;5071525;28;20595;-59
2021/09/21 06:59:04;;;;;;;1.45;0.40;;;21.50;46.20;;;;;;5071559;28;20246;-60
2021/09/21 07:01:35;;;;;;;0.47;0.45;;;21.40;46.20;;;;;;5071808;28;20285;-60
2021/09/21 07:04:05;;;;;;;0.68;0.50;;;21.40;46.20;;;;;;5071818;28;20307;-60
2021/09/21 07:06:36;;;;;;;2.08;0.50;;;21.40;46.40;;;;;;5071774;28;20252;-57
2021/09/21 07:09:06;;;;;;;0.88;0.60;;;21.40;46.30;;;;;;5071785;28;20334;-59
2021/09/21 07:11:39;;;;;;;0.93;0.47;;;21.40;46.30;;;;;;5072112;28;20191;-60
2021/09/21 07:14:10;;;;;;;1.02;0.50;;;21.40;46.30;;;;;;5071601;28;20199;-57
2021/09/21 07:16:41;;;;;;;0.88;0.55;;;21.30;46.30;;;;;;5071162;28;20236;-59
2021/09/21 07:19:11;;;;;;;0.30;0.30;;;21.30;46.30;;;;;;5070774;28;20715;-59
2021/09/21 07:21:42;;;;;;;0.55;0.40;;;21.30;46.20;;;;;;5070972;28;20226;-58
2021/09/21 07:24:12;;;;;;;0.70;0.50;;;21.30;46.30;;;;;;5071452;28;20323;-59
2021/09/21 07:26:46;;;;;;;0.57;0.50;;;21.30;46.30;;;;;;5071423;28;20222;-60
2021/09/21 07:29:16;;;;;;;0.30;0.30;;;21.30;46.30;;;;;;5071198;28;20226;-59
2021/09/21 07:31:48;;;;;;;0.40;0.40;;;21.30;46.40;;;;;;5071307;28;20234;-60
2021/09/21 07:34:18;;;;;;;0.73;0.30;;;21.30;46.40;;;;;;5071116;28;20199;-61
2021/09/21 07:36:51;;;;;;;0.98;0.57;;;21.20;46.40;;;;;;5071172;28;20227;-58
2021/09/21 07:39:22;;;;;;;1.65;0.45;;;21.20;46.50;;;;;;5070928;28;20309;-59
2021/09/21 07:41:55;;;;;;;0.57;0.50;;;21.20;46.40;;;;;;5070647;28;20241;-58
2021/09/21 07:44:25;;;;;;;0.43;0.40;;;21.20;46.50;;;;;;5070597;28;20236;-58
2021/09/21 07:46:57;;;;;;;0.82;0.50;;;21.20;46.50;;;;;;5071141;28;20653;-58
2021/09/21 07:49:28;;;;;;;0.38;0.38;;;21.10;46.50;;;;;;5070931;28;20226;-54
2021/09/21 07:51:59;;;;;;;1.05;0.60;;;21.10;46.50;;;;;;5070571;28;20671;-60
2021/09/21 07:54:29;;;;;;;0.63;0.30;;;21.10;47.10;;;;;;5070460;28;20205;-60
2021/09/21 07:57:02;;;;;;;1.48;0.50;;;21.10;46.60;;;;;;5070785;28;20640;-60
2021/09/21 07:59:33;;;;;;;1.10;0.40;;;21.10;46.50;;;;;;5071030;28;20266;-57
2021/09/21 08:02:05;;;;;;;1.23;0.40;;;21.10;46.60;;;;;;5070852;28;20625;-59
2021/09/21 08:04:35;;;;;;;0.57;0.50;;;21.00;46.60;;;;;;5070533;28;20218;-61
2021/09/21 08:07:18;;;;;;;0.73;0.40;;;21.00;46.70;;;;;;5070180;28;20190;-62
2021/09/21 08:09:49;;;;;;;1.52;0.57;;;21.10;46.70;;;;;;5069976;28;20191;-48
2021/09/21 08:12:21;;;;;;;0.98;0.40;;;21.00;46.60;;;;;;5070562;28;20187;-48
2021/09/21 08:14:53;;;;;;;0.47;0.40;;;21.00;46.70;;;;;;5070364;28;20202;-61
2021/09/21 08:17:24;;;;;;;1.20;0.47;;;21.00;46.60;;;;;;5070167;28;20874;-53
2021/09/21 08:19:55;;;;;;;1.00;0.50;;;21.00;46.70;;;;;;5069490;28;20659;-58
2021/09/21 08:22:26;;;;;;;1.70;0.40;;;21.00;46.70;;;;;;5069635;28;20205;-55
2021/09/21 08:24:57;;;;;;;0.57;0.32;;;21.00;46.80;;;;;;5069737;28;20241;-50
2021/09/21 08:27:29;;;;;;;0.73;0.40;;;21.00;46.80;;;;;;5069267;28;20191;-63
2021/09/21 08:30:00;;;;;;;0.85;0.40;;;20.90;46.80;;;;;;5070083;28;20202;-54
2021/09/21 08:32:32;;;;;;;0.40;0.30;;;20.90;46.80;;;;;;5069893;28;20218;-60
2021/09/21 08:35:03;;;;;;;0.30;0.30;;;20.90;46.80;;;;;;5069875;28;20256;-47
2021/09/21 08:37:34;;;;;;;0.68;0.40;;;20.90;46.80;;;;;;5069992;28;20658;-60
2021/09/21 08:40:04;;;;;;;0.40;0.40;;;20.90;46.80;;;;;;5069106;28;20195;-58
2021/09/21 08:42:36;;;;;;;0.40;0.40;;;20.90;46.90;;;;;;5070663;28;20252;-60
2021/09/21 08:45:08;;;;;;;0.75;0.50;;;20.90;46.90;;;;;;5070744;28;20235;-56
2021/09/21 08:47:38;;;;;;;1.17;0.40;;;20.90;46.90;;;;;;5070534;28;20218;-57
2021/09/21 08:50:09;;;;;;;0.68;0.40;;;20.80;46.80;;;;;;5070759;28;20227;-53
2021/09/21 08:52:41;;;;;;;0.40;0.40;;;20.80;46.80;;;;;;5070553;28;20226;-55
2021/09/21 08:55:12;;;;;;;0.63;0.32;;;20.80;46.80;;;;;;5072335;28;20203;-59
2021/09/21 08:57:44;;;;;;;0.50;0.30;;;20.80;46.80;;;;;;5065296;28;20681;-47
2021/09/21 09:00:16;;;;;;;0.40;0.20;;;20.70;46.80;;;;;;5073002;28;20619;-50
2021/09/21 09:02:47;;;;;;;0.60;0.30;;;20.80;46.90;;;;;;5073208;28;20195;-56
2021/09/21 09:05:17;;;;;;;0.30;0.30;;;20.70;46.80;;;;;;5073346;28;20266;-57
2021/09/21 09:07:54;;;;;;;0.20;0.20;;;20.70;46.90;;;;;;5072380;28;20227;-47
2021/09/21 09:10:25;;;;;;;1.10;0.25;;;20.70;46.90;;;;;;5054551;28;20238;-57
2021/09/21 09:12:57;;;;;;;0.50;0.35;;;20.70;47.00;;;;;;5074053;28;20198;-53
2021/09/21 09:15:27;;;;;;;0.47;0.28;;;20.60;46.90;;;;;;5073124;28;20195;-53
2021/09/21 09:17:58;;;;;;;0.40;0.40;;;20.60;46.90;;;;;;5057833;28;20224;-59
2021/09/21 09:20:38;;;;;;;0.57;0.40;;;20.60;47.00;;;;;;5052645;28;20203;-59
2021/09/21 09:23:09;;;;;;;0.20;0.20;;;20.60;46.90;;;;;;5052160;28;20203;-59
2021/09/21 09:25:44;;;;;;;0.40;0.28;;;20.60;46.90;;;;;;5063837;28;20227;-55
2021/09/21 09:28:19;;;;;;;0.47;0.30;;;20.60;46.90;;;;;;5055454;28;20266;-55
2021/09/21 09:30:50;;;;;;;0.30;0.30;;;20.60;46.90;;;;;;5056080;28;20282;-56
2021/09/21 09:33:20;;;;;;;0.40;0.30;;;20.50;46.90;;;;;;5072685;28;20195;-53
2021/09/21 09:35:51;;;;;;;1.25;0.30;;;20.50;46.90;;;;;;5072805;28;20234;-55
2021/09/21 09:38:23;;;;;;;1.13;0.35;;;20.50;46.90;;;;;;5052861;28;20255;-55
2021/09/21 09:40:54;;;;;;;0.20;0.20;;;20.50;46.90;;;;;;5052952;28;20631;-57
2021/09/21 09:43:27;;;;;;;0.30;0.30;;;20.50;46.90;;;;;;5066112;28;20234;-55
2021/09/21 09:45:59;;;;;;;0.28;0.28;;;20.50;46.90;;;;;;5072026;28;20303;-60
2021/09/21 09:48:30;;;;;;;1.85;0.40;;;20.50;46.90;;;;;;5062353;28;20771;-47
2021/09/21 09:51:00;;;;;;;0.22;0.20;;;20.50;46.90;;;;;;5073084;28;20629;-52
2021/09/21 09:53:31;;;;;;;0.47;0.30;;;20.40;46.90;;;;;;5071298;28;20244;-56
2021/09/21 09:56:01;;;;;;;0.28;0.28;;;20.50;46.90;;;;;;5071343;28;20206;-48
2021/09/21 09:58:34;;;;;;;0.98;0.20;;;20.40;46.90;;;;;;5052524;28;20251;-55
2021/09/21 10:01:04;;;;;;;0.65;0.40;;;20.40;47.00;;;;;;5052324;28;20238;-54
2021/09/21 10:03:34;;;;;;;0.30;0.30;;;20.40;46.90;;;;;;5062345;28;20329;-52
2021/09/21 10:06:05;;;;;;;0.28;0.20;;;20.40;47.00;;;;;;5071576;28;20318;-52
2021/09/21 10:08:35;;;;;;;0.28;0.28;;;20.40;47.00;;;;;;5070728;28;20258;-54
2021/09/21 10:11:06;;;;;;;0.85;0.28;;;20.30;47.00;;;;;;5069559;28;20290;-48
2021/09/21 10:13:38;;;;;;;0.30;0.20;;;20.40;47.10;;;;;;5072626;28;20195;-60
2021/09/21 10:16:09;;;;;;;0.35;0.28;;;20.30;47.00;;;;;;5071309;28;20225;-60
2021/09/21 10:18:44;;;;;;;0.35;0.30;;;20.30;47.00;;;;;;5071946;28;20219;-60
2021/09/21 10:21:15;;;;;;;0.55;0.30;;;20.30;47.00;;;;;;5072155;28;20198;-58
2021/09/21 10:23:45;;;;;;;0.28;0.28;;;20.30;47.00;;;;;;5090418;28;20209;-54
2021/09/21 10:26:16;;;;;;;0.55;0.30;;;20.30;47.00;;;;;;5075998;28;20227;-57
2021/09/21 10:28:51;;;;;;;0.28;0.20;;;20.30;47.00;;;;;;5071673;28;20257;-58
2021/09/21 10:31:22;;;;;;;0.30;0.30;;;20.30;47.00;;;;;;5072148;28;20229;-58
2021/09/21 10:33:53;;;;;;;0.25;0.25;;;20.20;47.00;;;;;;5071277;28;20199;-57
2021/09/21 10:36:24;;;;;;;0.20;0.20;;;20.20;47.00;;;;;;5071730;28;20199;-53
2021/09/21 10:38:59;;;;;;;1.00;0.38;;;20.20;47.00;;;;;;5070750;28;20210;-55
2021/09/21 10:41:29;;;;;;;0.32;0.20;;;20.20;47.10;;;;;;5070656;28;20230;-58
2021/09/21 10:44:09;;;;;;;0.30;0.20;;;20.20;47.10;;;;;;5071010;28;20281;-56
2021/09/21 10:46:47;;;;;;;0.30;0.30;;;20.20;47.10;;;;;;5066549;28;20262;-47
2021/09/21 10:49:28;;;;;;;0.98;0.20;;;20.20;47.10;;;;;;5070894;28;20261;-57
2021/09/21 10:52:00;;;;;;;0.20;0.20;;;20.20;47.20;;;;;;5071018;28;20191;-54
2021/09/21 10:54:37;;;;;;;0.28;0.28;;;20.10;47.20;;;;;;5070279;28;20675;-47
2021/09/21 10:57:13;;;;;;;0.32;0.32;;;20.10;47.10;;;;;;5062432;28;20234;-47
2021/09/21 10:59:54;;;;;;;0.35;0.25;;;20.10;47.10;;;;;;5051709;28;20591;-52
2021/09/21 11:02:25;;;;;;;0.98;0.40;;;20.10;47.10;;;;;;5050717;28;20715;-55
2021/09/21 11:04:55;;;;;;;0.40;0.40;;;20.10;47.20;;;;;;5062380;28;20276;-59
2021/09/21 11:07:26;;;;;;;0.30;0.30;;;20.10;47.20;;;;;;5070300;28;20257;-54
2021/09/21 11:09:56;;;;;;;0.30;0.30;;;20.10;47.20;;;;;;5069988;28;20234;-60
2021/09/21 11:12:27;;;;;;;0.25;0.25;;;20.00;47.20;;;;;;5069657;28;20230;-60
2021/09/21 11:14:59;;;;;;;0.45;0.20;;;20.00;47.20;;;;;;5070254;28;20284;-58
2021/09/21 11:17:30;;;;;;;0.30;0.30;;;20.00;47.20;;;;;;5059287;28;20482;-55
2021/09/21 11:20:00;;;;;;;0.40;0.30;;;20.00;47.20;;;;;;5070224;28;20217;-51
2021/09/21 11:22:31;;;;;;;0.95;0.30;;;20.00;47.30;;;;;;5071080;28;20195;-53
2021/09/21 11:25:05;;;;;;;1.95;0.30;;;20.00;47.30;;;;;;5070647;28;20203;-55
2021/09/21 11:27:37;;;;;;;0.32;0.30;;;20.00;47.40;;;;;;5068558;28;20929;-56
2021/09/21 11:30:10;;;;;;;1.38;0.35;;;20.00;47.40;;;;;;5066457;28;20231;-50
2021/09/21 11:32:40;;;;;;;0.30;0.30;;;19.90;47.40;;;;;;5070873;28;20249;-55
2021/09/21 11:35:12;;;;;;;0.20;0.20;;;19.90;47.40;;;;;;5070904;28;20238;-58
2021/09/21 11:37:44;;;;;;;0.20;0.20;;;19.90;47.40;;;;;;5070248;28;20323;-55
2021/09/21 11:40:25;;;;;;;0.30;0.30;;;19.90;47.60;;;;;;5075530;28;20236;-56
2021/09/21 11:42:55;;;;;;;0.40;0.30;;;19.90;47.40;;;;;;5091286;28;20233;-52
2021/09/21 11:45:31;;;;;;;0.20;0.20;;;19.90;47.40;;;;;;5089989;28;20303;-50
2021/09/21 11:48:01;;;;;;;0.50;0.30;;;19.90;47.40;;;;;;5073953;28;20322;-57
2021/09/21 11:50:33;;;;;;;0.38;0.30;;;19.90;47.40;;;;;;5070771;28;20226;-51
2021/09/21 11:53:06;;;;;;;0.30;0.30;;;19.90;47.40;;;;;;5069497;28;20226;-53
2021/09/21 11:55:37;;;;;;;0.20;0.20;;;19.80;47.40;;;;;;5070203;28;20203;-53
2021/09/21 11:58:10;;;;;;;0.60;0.30;;;19.80;47.50;;;;;;5066753;28;20682;-55
2021/09/21 12:00:42;;;;;;;0.68;0.50;;;19.80;47.50;;;;;;5070398;28;20201;-57
2021/09/21 12:03:14;;;;;;;1.33;0.40;;;19.80;47.50;;;;;;5070198;28;20245;-52
2021/09/21 12:05:44;;;;;;;0.25;0.25;;;19.80;47.60;;;;;;5069323;28;20284;-56
2021/09/21 12:08:15;;;;;;;0.63;0.30;;;19.80;47.60;;;;;;5062359;28;20257;-58
2021/09/21 12:10:46;;;;;;;0.20;0.20;;;19.80;47.60;;;;;;5068536;28;20226;-55
2021/09/21 12:13:18;;;;;;;0.40;0.30;;;19.70;47.60;;;;;;5070838;28;20252;-59
2021/09/21 12:15:52;;;;;;;0.20;0.20;;;19.70;48.20;;;;;;5069747;28;20249;-58
2021/09/21 12:18:23;;;;;;;0.30;0.30;;;19.70;47.60;;;;;;5052067;28;20258;-58
2021/09/21 12:20:57;;;;;;;0.20;0.20;;;19.70;47.60;;;;;;5050133;28;20245;-57
2021/09/21 12:23:27;;;;;;;0.30;0.30;;;19.70;47.60;;;;;;5050606;28;20223;-58
2021/09/21 12:25:58;;;;;;;0.47;0.30;;;19.70;47.60;;;;;;5063608;28;20309;-59
2021/09/21 12:28:29;;;;;;;3.65;0.50;;;19.70;47.60;;;;;;5071509;28;20250;-59
2021/09/21 12:31:01;;;;;;;15.63;1.58;;;19.70;47.60;;;;;;5074834;28;20287;-55
2021/09/21 12:33:37;;;;;;;18.70;2.13;;;19.60;47.60;;;;;;5075305;28;20230;-56
2021/09/21 12:36:08;;;;;;;12.90;1.48;;;19.60;47.70;;;;;;5074831;28;20191;-57
2021/09/21 12:38:38;;;;;;;8.52;1.60;;;19.60;47.70;;;;;;5074302;28;20219;-58
2021/09/21 12:41:08;;;;;;;11.10;1.08;;;19.60;47.70;;;;;;5074999;28;20230;-57
2021/09/21 12:43:41;;;;;;;10.90;1.85;;;19.60;47.70;;;;;;5074600;28;20659;-58
2021/09/21 12:46:14;;;;;;;9.85;1.23;;;19.60;47.70;;;;;;5074117;28;20319;-59
2021/09/21 12:48:45;;;;;;;11.52;1.38;;;19.60;47.70;;;;;;5074178;28;20765;-60
2021/09/21 12:51:15;;;;;;;7.47;1.10;;;19.60;47.80;;;;;;5074591;28;20218;-58
2021/09/21 12:53:46;;;;;;;10.32;0.80;;;19.60;47.90;;;;;;5074589;28;20226;-54
2021/09/21 12:56:16;;;;;;;8.45;1.17;;;19.60;47.90;;;;;;5074000;28;20284;-55
2021/09/21 12:58:46;;;;;;;7.57;1.17;;;19.50;47.90;;;;;;5073629;28;20258;-56
2021/09/21 13:01:19;;;;;;;4.93;0.73;;;19.50;47.80;;;;;;5073895;28;20297;-58
2021/09/21 13:03:49;;;;;;;11.52;1.48;;;19.50;47.80;;;;;;5074251;28;20201;-58
2021/09/21 13:06:20;;;;;;;4.18;0.88;;;19.50;47.80;;;;;;5073900;28;20258;-58
2021/09/21 13:08:51;;;;;;;5.55;0.90;;;19.50;47.80;;;;;;5072464;28;20318;-54
2021/09/21 13:11:21;;;;;;;5.35;0.88;;;19.50;47.80;;;;;;5069371;28;20191;-54
2021/09/21 13:13:51;;;;;;;4.43;0.90;;;19.50;48.40;;;;;;5071185;28;20222;-56